Butler, South Dakota
Current Conditions -  °F | °C
As of 2:53 AM on Friday 24 Oct 2014 (Local Time) from KABR Reporting Station
Clear Clear  
Wind Chill: 39°   Ceiling: Unl
Heat Index: 39°   Visibility: 10mi
Dew Point: 38°   Wind: 3mph
Humidity: 96%   Direction: 240°WSW
Pressure: 29.84"   Gusts: NA
Location:  45.2657°N, 97.7493°W
Report Text: KABR 240753Z AUTO 24003KT 10SM CLR 04/03 A2984 RMK AO2 SLP107 T00390033
Loading
Personal Weather Stations






























Interactive Weather Map
Tropical Storm Tracking
New forecast layout! Learn more

10-Day Weather Forecast

Advertisements
Track Severe Weather on mobile